Cascade Locks, OR

2:28 AM PDT on September 04, 2015 (GMT -0700)
Wind River - Stabler, WA | | Change Station
CLOSE
Current Station
Personal Weather Station
Location: Carson, WA
Elevation: 994 ft
Nearby Weather Stations

Elev 994 ft 45.80 °N, 121.91 °W | Updated 10 seconds ago

Clear
Clear
41.9 °F
Feels Like 42 °F
N
0.0
Wind Variable Wind from SSW
Gusts 0.0 mph

Today
High -- | Low -- °F
--% Chance of Precip.
Yesterday
High -- | Low -- °F
Precip. -- in
6:31 AM 7:39 PM
Waning Gibbous, 61% visible
Pressure 29.98 in
Visibility 10.0 miles
Clouds Overcast 1000 ft
Windchill 42 °F
Dew Point 39 °F
Humidity 88%
Rainfall 0.00 in
Snow Depth Not available.
UV 0.0 out of 12
Pollen 3.00 out of 12
Air Quality Not available.
Flu Activity Not available.
SPECI KTTD 040906Z AUTO 00000KT 10SM OVC010 12/09 A2998 RMK AO2 T01170094
Pressure 29.98 in
Visibility 10.0 miles
Clouds Overcast 1000 ft
Windchill 42 °F
Dew Point 39 °F
Humidity 88%
Rainfall 0.00 in
Snow Depth Not available.
UV 0.0 out of 12
Pollen 3.00 out of 12
Air Quality Not available.
Flu Activity Not available.
SPECI KTTD 040906Z AUTO 00000KT 10SM OVC010 12/09 A2998 RMK AO2 T01170094

10-Day Weather Forecast

×

Almanac

Astronomy

Sep. 04, 2015 Rise Set
Actual Time
Civil Twilight
Nautical Twilight
Astronomical Twilight
Moon
Length of Visible Light
Length of Day
Tomorrow will be .
, % of the Moon is Illuminated

Today's Extremes

State Highs State Lows

Community

WunderPhotos

Upload Photos

1,852,142 photos uploaded!

WunderBlogs® & News

Nearby

Air Quality

  Air Quality AQ Index Pollutant
Not available.

Snow Depth

Station Depth Elevation

Earthquake Activity

City Distance Mag. Time & Date
Minimum magnitude displayed is 2.5.

Coastal Water Temperatures

Place Temperature

Stations

Nearby Weather Stations

Station Location Temp. Windchill Dew Point Humidity Wind Precip. Elev Updated Type